createdAt,value
2023-05-23T00:03:35.987Z,3.80
2023-05-23T00:16:35.957Z,3.50
2023-05-23T00:29:35.911Z,3.20
2023-05-23T00:42:35.996Z,3.10
2023-05-23T00:55:36.000Z,3.30
2023-05-23T01:08:36.014Z,3.00
2023-05-23T01:21:36.018Z,3.30
2023-05-23T01:34:36.014Z,3.20
2023-05-23T01:47:36.078Z,3.40
2023-05-23T02:00:36.061Z,3.30
2023-05-23T02:13:36.150Z,3.00
2023-05-23T02:26:36.148Z,3.10
2023-05-23T02:39:36.171Z,3.00
2023-05-23T02:52:36.174Z,3.00
2023-05-23T03:05:36.190Z,3.10
2023-05-23T03:18:36.214Z,2.80
2023-05-23T03:31:36.266Z,3.10
2023-05-23T03:44:36.272Z,3.00
2023-05-23T03:57:36.287Z,3.15
2023-05-23T04:10:36.365Z,3.20
2023-05-23T04:23:36.315Z,2.80
2023-05-23T04:36:36.351Z,3.10
2023-05-23T04:49:36.337Z,2.90
2023-05-23T05:02:36.625Z,2.70
2023-05-23T05:15:36.446Z,2.90
2023-05-23T05:28:36.493Z,2.70
2023-05-23T05:41:36.521Z,2.90
2023-05-23T05:54:36.541Z,3.00
2023-05-23T06:07:36.615Z,2.90
2023-05-23T06:20:36.631Z,2.70
2023-05-23T06:33:36.618Z,2.80
2023-05-23T06:46:39.037Z,3.00
2023-05-23T06:59:36.706Z,2.60
2023-05-23T07:12:36.702Z,2.60
2023-05-23T07:25:37.758Z,2.40
2023-05-23T07:38:36.767Z,2.40
2023-05-23T07:51:36.739Z,2.50
2023-05-23T08:04:36.754Z,2.60
2023-05-23T08:17:36.872Z,2.70
2023-05-23T08:30:36.850Z,2.60
2023-05-23T08:43:36.929Z,2.60
2023-05-23T08:56:36.934Z,2.40
2023-05-23T09:09:36.989Z,15.70
2023-05-23T09:22:37.028Z,20.10
2023-05-23T09:35:37.080Z,18.80
2023-05-23T09:48:37.082Z,16.10
2023-05-23T10:01:37.148Z,12.00
2023-05-23T10:14:37.110Z,10.80
2023-05-23T10:27:37.120Z,9.40
2023-05-23T10:40:37.185Z,8.60
2023-05-23T10:53:37.170Z,7.40
2023-05-23T11:06:37.181Z,7.10
2023-05-23T11:19:37.314Z,6.80
2023-05-23T11:32:37.474Z,6.10
2023-05-23T11:45:37.245Z,5.90
2023-05-23T11:58:37.343Z,5.80
2023-05-23T12:11:37.299Z,5.40
2023-05-23T12:24:37.326Z,5.40
2023-05-23T12:37:37.344Z,4.80
2023-05-23T12:50:37.423Z,4.70
2023-05-23T13:03:37.473Z,4.80
2023-05-23T13:16:37.476Z,4.40
2023-05-23T13:29:37.457Z,4.50
2023-05-23T13:42:37.484Z,4.20
2023-05-23T13:55:37.533Z,4.20
2023-05-23T14:08:37.546Z,4.20
2023-05-23T14:21:37.530Z,4.90
2023-05-23T14:34:37.540Z,4.10
2023-05-23T14:47:37.658Z,4.20
2023-05-23T15:00:37.596Z,3.90
2023-05-23T15:13:37.565Z,4.20
2023-05-23T15:26:37.579Z,4.10
2023-05-23T15:39:37.598Z,3.90
2023-05-23T15:52:37.578Z,3.80
2023-05-23T16:05:37.614Z,3.50
2023-05-23T16:18:37.733Z,3.50
2023-05-23T16:31:37.682Z,3.60
2023-05-23T16:44:37.685Z,3.60
2023-05-23T16:57:37.646Z,3.70
2023-05-23T17:10:37.670Z,3.30
2023-05-23T17:23:37.749Z,3.30
2023-05-23T17:36:37.773Z,3.50
2023-05-23T17:49:37.748Z,3.50
2023-05-23T18:02:37.821Z,3.60
2023-05-23T18:15:37.772Z,3.40
2023-05-23T18:28:37.773Z,3.40
2023-05-23T18:41:37.804Z,3.10
2023-05-23T18:54:37.781Z,3.10
2023-05-23T19:07:37.805Z,3.30
2023-05-23T19:20:38.515Z,3.40
2023-05-23T19:33:37.849Z,3.40
2023-05-23T19:46:37.888Z,4.90
2023-05-23T19:59:37.853Z,6.70
2023-05-23T20:12:37.846Z,5.10
2023-05-23T20:25:38.719Z,5.60
2023-05-23T20:38:37.906Z,6.30
2023-05-23T20:51:37.899Z,6.10
2023-05-23T21:04:37.919Z,5.70
2023-05-23T21:17:37.917Z,6.30
2023-05-23T21:30:37.944Z,6.90
2023-05-23T21:43:37.924Z,6.60
2023-05-23T21:56:37.920Z,5.90
2023-05-23T22:09:37.964Z,6.30
2023-05-23T22:22:38.556Z,5.50
2023-05-23T22:35:37.957Z,5.30
2023-05-23T22:48:38.023Z,5.20
2023-05-23T23:01:37.993Z,4.70
2023-05-23T23:14:37.988Z,4.60
2023-05-23T23:27:37.971Z,4.70
2023-05-23T23:40:37.987Z,4.70
2023-05-23T23:53:38.044Z,4.40
